createdAt,value
2023-02-02T00:00:29.229Z,90.98
2023-02-02T00:03:14.413Z,91.09
2023-02-02T00:05:59.454Z,92.14
2023-02-02T00:08:44.418Z,100.00
2023-02-02T00:11:29.805Z,93.10
2023-02-02T00:14:15.116Z,92.57
2023-02-02T00:17:00.437Z,92.91
2023-02-02T00:19:45.664Z,93.37
2023-02-02T00:22:30.632Z,93.77
2023-02-02T00:25:15.535Z,93.65
2023-02-02T00:28:07.578Z,94.74
2023-02-02T00:30:59.785Z,94.93
2023-02-02T00:33:52.049Z,93.44
2023-02-02T00:36:44.579Z,93.64
2023-02-02T00:39:36.899Z,99.45
2023-02-02T00:42:29.062Z,93.11
2023-02-02T00:45:20.527Z,93.06
2023-02-02T00:48:12.584Z,97.68
2023-02-02T00:51:05.111Z,91.79
2023-02-02T00:53:56.625Z,92.06
2023-02-02T00:56:49.122Z,91.49
2023-02-02T00:59:44.352Z,93.21
2023-02-02T01:02:36.216Z,92.98
2023-02-02T01:05:27.791Z,92.57
2023-02-02T01:08:19.959Z,93.36
2023-02-02T01:11:11.834Z,92.20
2023-02-02T01:14:03.967Z,91.84
2023-02-02T01:16:55.931Z,99.92
2023-02-02T01:19:47.555Z,97.32
2023-02-02T01:22:39.796Z,91.85
2023-02-02T01:25:31.823Z,91.02
2023-02-02T01:28:24.585Z,96.61
2023-02-02T01:31:18.422Z,92.53
2023-02-02T01:34:10.669Z,91.87
2023-02-02T01:37:02.283Z,92.46
2023-02-02T01:39:53.738Z,93.94
2023-02-02T01:42:45.407Z,91.57
2023-02-02T01:45:37.711Z,91.57
2023-02-02T01:48:32.558Z,94.35
2023-02-02T01:51:31.736Z,93.34
2023-02-02T01:54:35.020Z,92.98
2023-02-02T01:57:33.327Z,94.48
2023-02-02T02:00:28.480Z,91.90
2023-02-02T02:03:32.215Z,93.34
2023-02-02T02:06:24.256Z,93.42
2023-02-02T02:09:15.444Z,95.30
2023-02-02T02:12:15.801Z,92.52
2023-02-02T02:14:46.271Z,91.92
2023-02-02T02:17:25.780Z,91.69
2023-02-02T02:20:21.185Z,92.35
2023-02-02T02:23:12.308Z,90.69
2023-02-02T02:26:17.066Z,92.23
2023-02-02T02:28:49.973Z,95.77
2023-02-02T02:31:40.953Z,93.00
2023-02-02T02:34:20.347Z,92.51
2023-02-02T02:37:00.937Z,98.06
2023-02-02T02:39:34.984Z,99.22
2023-02-02T02:42:13.212Z,90.85
2023-02-02T02:44:41.898Z,91.35
2023-02-02T02:47:10.312Z,92.01
2023-02-02T02:49:45.349Z,92.80
2023-02-02T02:52:13.094Z,92.67
2023-02-02T02:54:46.609Z,91.94
2023-02-02T02:57:35.938Z,95.90
2023-02-02T03:00:30.787Z,92.73
2023-02-02T03:03:19.945Z,90.96
2023-02-02T03:06:04.907Z,90.82
2023-02-02T03:08:37.625Z,99.42
2023-02-02T03:11:07.480Z,92.02
2023-02-02T03:13:35.210Z,91.47
2023-02-02T03:16:02.577Z,91.50
2023-02-02T03:18:31.560Z,91.24
2023-02-02T03:20:59.256Z,91.53
2023-02-02T03:23:27.113Z,90.70
2023-02-02T03:25:55.053Z,91.21
2023-02-02T03:28:25.102Z,92.50
2023-02-02T03:30:54.673Z,89.89
2023-02-02T03:33:22.583Z,90.31
2023-02-02T03:35:50.149Z,90.91
2023-02-02T03:38:17.651Z,96.34
2023-02-02T03:40:44.900Z,92.23
2023-02-02T03:43:12.130Z,90.34
2023-02-02T03:45:41.860Z,91.41
2023-02-02T03:48:09.292Z,91.52
2023-02-02T03:50:40.370Z,83.59
2023-02-02T03:53:10.990Z,72.86
2023-02-02T03:55:38.303Z,70.94
2023-02-02T03:58:05.521Z,73.04
2023-02-02T04:00:32.958Z,71.69
2023-02-02T04:03:01.038Z,72.34
2023-02-02T04:05:28.293Z,70.44
2023-02-02T04:07:55.540Z,73.74
2023-02-02T04:10:23.215Z,69.04
2023-02-02T04:12:50.467Z,75.64
2023-02-02T04:15:17.728Z,80.92
2023-02-02T04:17:45.004Z,100.00
2023-02-02T04:20:12.207Z,86.57
2023-02-02T04:22:39.465Z,88.50
2023-02-02T04:25:07.132Z,94.21
2023-02-02T04:27:35.134Z,92.77
2023-02-02T04:30:02.499Z,90.51
2023-02-02T04:32:29.986Z,93.06
2023-02-02T04:34:57.519Z,97.17
2023-02-02T04:37:24.710Z,94.56
2023-02-02T04:39:52.039Z,93.81
2023-02-02T04:42:19.277Z,95.28
2023-02-02T04:44:47.320Z,100.00
2023-02-02T04:47:15.107Z,100.00
2023-02-02T04:49:42.807Z,91.75
2023-02-02T04:52:11.765Z,96.39
2023-02-02T04:54:39.725Z,100.00
2023-02-02T04:57:07.411Z,95.25
2023-02-02T04:59:35.265Z,92.70
2023-02-02T05:02:03.664Z,93.22
2023-02-02T05:04:31.800Z,97.07
2023-02-02T05:07:00.028Z,93.82
2023-02-02T05:09:27.798Z,93.77
2023-02-02T05:11:55.043Z,95.16
2023-02-02T05:14:22.520Z,94.78
2023-02-02T05:16:49.784Z,94.11
2023-02-02T05:19:17.081Z,94.42
2023-02-02T05:21:45.012Z,95.22
2023-02-02T05:24:12.571Z,94.45
2023-02-02T05:26:40.396Z,95.15
2023-02-02T05:29:07.799Z,94.63
2023-02-02T05:31:35.389Z,95.38
2023-02-02T05:34:03.044Z,94.41
2023-02-02T05:36:30.319Z,94.36
2023-02-02T05:38:57.582Z,94.54
2023-02-02T05:41:24.860Z,96.91
2023-02-02T05:43:52.044Z,98.25
2023-02-02T05:46:19.521Z,92.76
2023-02-02T05:48:46.816Z,93.51
2023-02-02T05:51:33.965Z,93.01
2023-02-02T05:54:01.639Z,91.73
2023-02-02T05:56:29.515Z,93.50
2023-02-02T05:58:56.752Z,93.99
2023-02-02T06:01:23.980Z,93.07
2023-02-02T06:03:52.112Z,96.42
2023-02-02T06:06:19.780Z,95.13
2023-02-02T06:08:47.664Z,95.30
2023-02-02T06:11:18.200Z,94.54
2023-02-02T06:13:46.348Z,99.70
2023-02-02T06:16:23.160Z,94.29
2023-02-02T06:18:51.233Z,92.07
2023-02-02T06:21:18.815Z,93.12
2023-02-02T06:23:47.185Z,91.68
2023-02-02T06:26:16.269Z,84.92
2023-02-02T06:28:53.405Z,82.86
2023-02-02T06:31:24.383Z,85.57
2023-02-02T06:33:57.564Z,94.48
2023-02-02T06:36:27.881Z,87.48
2023-02-02T06:38:57.455Z,87.96
2023-02-02T06:41:25.373Z,86.89
2023-02-02T06:43:53.493Z,90.11
2023-02-02T06:46:23.237Z,86.04
2023-02-02T06:49:01.248Z,85.68
2023-02-02T06:51:29.343Z,87.52
2023-02-02T06:53:59.238Z,87.76
2023-02-02T06:56:29.933Z,80.50
2023-02-02T06:58:59.718Z,77.53
2023-02-02T07:01:27.114Z,73.05
2023-02-02T07:03:54.849Z,71.31
2023-02-02T07:06:25.160Z,68.26
2023-02-02T07:09:02.970Z,70.59
2023-02-02T07:11:34.753Z,77.92
2023-02-02T07:14:05.159Z,76.42
2023-02-02T07:16:32.429Z,80.25
2023-02-02T07:18:59.692Z,82.11
2023-02-02T07:21:27.650Z,82.18
2023-02-02T07:23:54.908Z,83.45
2023-02-02T07:26:22.177Z,85.06
2023-02-02T07:28:51.977Z,85.62
2023-02-02T07:31:25.496Z,84.70
2023-02-02T07:33:54.159Z,85.23
2023-02-02T07:36:23.236Z,86.65
2023-02-02T07:38:53.987Z,85.29
2023-02-02T07:41:22.086Z,84.64
2023-02-02T07:43:50.541Z,85.55
2023-02-02T07:46:18.592Z,78.38
2023-02-02T07:48:46.122Z,79.56
2023-02-02T07:51:17.813Z,76.58
2023-02-02T07:53:50.700Z,82.23
2023-02-02T07:56:25.629Z,77.02
2023-02-02T07:58:57.259Z,76.26
2023-02-02T08:01:28.761Z,76.97
2023-02-02T08:03:57.111Z,79.05
2023-02-02T08:06:32.840Z,76.45
2023-02-02T08:09:01.414Z,77.10
2023-02-02T08:11:28.921Z,76.67
2023-02-02T08:13:59.920Z,79.74
2023-02-02T08:16:29.129Z,80.12
2023-02-02T08:18:56.612Z,80.09
2023-02-02T08:21:24.308Z,80.76
2023-02-02T08:23:53.089Z,83.20
2023-02-02T08:26:26.261Z,80.92
2023-02-02T08:28:56.832Z,81.11
2023-02-02T08:31:27.967Z,80.29
2023-02-02T08:33:55.793Z,83.43
2023-02-02T08:36:27.445Z,81.65
2023-02-02T08:38:54.879Z,81.76
2023-02-02T08:41:24.199Z,82.08
2023-02-02T08:43:51.803Z,83.46
2023-02-02T08:46:21.388Z,82.73
2023-02-02T08:48:49.303Z,79.92
2023-02-02T08:51:18.663Z,80.46
2023-02-02T08:53:46.601Z,80.96
2023-02-02T08:56:19.042Z,80.73
2023-02-02T08:58:52.384Z,78.47
2023-02-02T09:01:20.821Z,77.38
2023-02-02T09:03:52.779Z,84.36
2023-02-02T09:06:21.313Z,75.49
2023-02-02T09:08:48.687Z,74.85
2023-02-02T09:11:18.627Z,73.86
2023-02-02T09:13:48.255Z,79.40
2023-02-02T09:16:18.650Z,72.15
2023-02-02T09:18:46.341Z,71.44
2023-02-02T09:21:15.996Z,71.51
2023-02-02T09:23:45.082Z,75.10
2023-02-02T09:26:27.417Z,70.39
2023-02-02T09:29:03.457Z,71.99
2023-02-02T09:31:34.496Z,72.27
2023-02-02T09:34:03.222Z,77.94
2023-02-02T09:36:31.539Z,72.82
2023-02-02T09:38:59.150Z,73.39
2023-02-02T09:41:41.950Z,73.12
2023-02-02T09:44:21.344Z,84.58
2023-02-02T09:47:12.971Z,73.24
2023-02-02T09:49:40.307Z,74.16
2023-02-02T09:52:14.396Z,73.78
2023-02-02T09:54:59.758Z,79.79
2023-02-02T09:57:40.380Z,75.12
2023-02-02T10:00:27.396Z,76.65
2023-02-02T10:03:13.631Z,83.82
2023-02-02T10:05:50.273Z,85.06
2023-02-02T10:08:50.342Z,79.35
2023-02-02T10:11:44.319Z,80.43
2023-02-02T10:14:27.734Z,82.93
2023-02-02T10:17:00.450Z,72.52
2023-02-02T10:19:27.727Z,78.83
2023-02-02T10:22:05.292Z,80.05
2023-02-02T10:24:33.317Z,83.47
2023-02-02T10:27:04.776Z,81.38
2023-02-02T10:29:56.615Z,83.08
2023-02-02T10:32:27.310Z,84.63
2023-02-02T10:35:14.655Z,90.05
2023-02-02T10:37:51.463Z,86.01
2023-02-02T10:40:40.037Z,85.42
2023-02-02T10:43:16.197Z,92.77
2023-02-02T10:45:45.698Z,88.43
2023-02-02T10:48:16.692Z,86.01
2023-02-02T10:50:49.517Z,75.99
2023-02-02T10:53:17.234Z,74.67
2023-02-02T10:55:53.558Z,73.96
2023-02-02T10:58:32.365Z,70.63
2023-02-02T11:00:59.809Z,72.78
2023-02-02T11:03:33.112Z,77.10
2023-02-02T11:06:03.237Z,77.01
2023-02-02T11:08:56.749Z,79.33
2023-02-02T11:11:32.816Z,78.70
2023-02-02T11:14:28.227Z,74.79
2023-02-02T11:17:03.100Z,76.80
2023-02-02T11:19:32.598Z,79.62
2023-02-02T11:22:03.097Z,81.39
2023-02-02T11:24:45.705Z,90.29
2023-02-02T11:27:39.507Z,84.73
2023-02-02T11:30:35.811Z,86.56
2023-02-02T11:33:28.015Z,97.45
2023-02-02T11:35:58.810Z,88.68
2023-02-02T11:38:26.943Z,88.66
2023-02-02T11:40:58.505Z,88.64
2023-02-02T11:43:36.054Z,89.16
2023-02-02T11:46:18.244Z,92.27
2023-02-02T11:49:02.192Z,89.56
2023-02-02T11:51:31.050Z,89.08
2023-02-02T11:54:15.624Z,96.06
2023-02-02T11:56:49.626Z,90.13
2023-02-02T11:59:37.526Z,89.89
2023-02-02T12:02:10.798Z,90.74
2023-02-02T12:04:40.831Z,93.32
2023-02-02T12:07:32.525Z,90.83
2023-02-02T12:10:04.575Z,90.71
2023-02-02T12:12:44.049Z,91.32
2023-02-02T12:16:09.046Z,94.94
2023-02-02T12:18:44.111Z,90.94
2023-02-02T12:21:14.408Z,91.42
2023-02-02T12:24:04.234Z,93.76
2023-02-02T12:26:36.186Z,93.22
2023-02-02T12:29:15.818Z,89.80
2023-02-02T12:31:59.596Z,90.61
2023-02-02T12:34:42.220Z,100.00
2023-02-02T12:37:12.380Z,100.00
2023-02-02T12:39:47.590Z,85.67
2023-02-02T12:42:36.451Z,87.71
2023-02-02T12:45:23.066Z,94.50
2023-02-02T12:48:23.573Z,88.67
2023-02-02T12:51:09.281Z,86.64
2023-02-02T12:53:39.319Z,91.84
2023-02-02T12:56:20.853Z,91.75
2023-02-02T12:59:07.101Z,85.09
2023-02-02T13:02:26.574Z,85.17
2023-02-02T13:04:56.771Z,87.61
2023-02-02T13:07:44.219Z,85.53
2023-02-02T13:10:26.818Z,82.93
2023-02-02T13:13:16.846Z,84.13
2023-02-02T13:15:49.559Z,89.00
2023-02-02T13:18:26.471Z,80.55
2023-02-02T13:21:00.724Z,80.83
2023-02-02T13:23:33.708Z,87.16
2023-02-02T13:26:10.224Z,84.07
2023-02-02T13:28:47.117Z,80.39
2023-02-02T13:31:36.229Z,81.79
2023-02-02T13:34:40.908Z,88.96
2023-02-02T13:37:39.662Z,80.88
2023-02-02T13:40:30.816Z,81.65
2023-02-02T13:43:29.060Z,81.30
2023-02-02T13:46:06.035Z,80.64
2023-02-02T13:48:56.778Z,80.86
2023-02-02T13:51:49.806Z,81.34
2023-02-02T13:54:29.200Z,85.63
2023-02-02T13:57:36.071Z,82.30
2023-02-02T14:00:12.232Z,82.86
2023-02-02T14:02:51.920Z,82.84
2023-02-02T14:05:32.664Z,85.21
2023-02-02T14:08:21.935Z,82.22
2023-02-02T14:10:55.688Z,80.81
2023-02-02T14:13:32.243Z,80.90
2023-02-02T14:16:03.939Z,89.85
2023-02-02T14:18:50.224Z,81.89
2023-02-02T14:21:32.571Z,80.61
2023-02-02T14:24:24.140Z,81.13
2023-02-02T14:27:10.041Z,81.82
2023-02-02T14:29:58.721Z,80.31
2023-02-02T14:32:25.928Z,80.31
2023-02-02T14:35:20.001Z,83.28
2023-02-02T14:37:56.408Z,79.49
2023-02-02T14:41:01.080Z,78.74
2023-02-02T14:43:39.668Z,81.16
2023-02-02T14:46:22.606Z,79.62
2023-02-02T14:48:58.837Z,78.33
2023-02-02T14:51:28.832Z,79.43
2023-02-02T14:54:07.258Z,79.23
2023-02-02T14:56:48.190Z,89.51
2023-02-02T14:59:32.871Z,78.84
2023-02-02T15:02:23.398Z,79.26
2023-02-02T15:04:50.743Z,82.95
2023-02-02T15:07:24.149Z,79.95
2023-02-02T15:09:52.749Z,77.82
2023-02-02T15:12:44.871Z,78.83
2023-02-02T15:15:25.519Z,82.17
2023-02-02T15:18:05.616Z,79.53
2023-02-02T15:20:40.629Z,78.96
2023-02-02T15:23:16.792Z,79.01
2023-02-02T15:25:56.902Z,86.81
2023-02-02T15:28:33.200Z,78.98
2023-02-02T15:31:29.777Z,79.38
2023-02-02T15:34:01.222Z,87.25
2023-02-02T15:36:32.376Z,82.24
2023-02-02T15:39:08.427Z,80.32
2023-02-02T15:41:42.530Z,80.62
2023-02-02T15:44:27.920Z,82.40
2023-02-02T15:46:56.358Z,87.69
2023-02-02T15:49:35.411Z,80.37
2023-02-02T15:52:26.221Z,81.30
2023-02-02T15:54:59.044Z,86.42
2023-02-02T15:57:36.013Z,81.07
2023-02-02T16:00:34.112Z,79.76
2023-02-02T16:03:14.182Z,79.77
2023-02-02T16:05:49.433Z,87.65
2023-02-02T16:08:25.231Z,80.51
2023-02-02T16:11:06.692Z,79.99
2023-02-02T16:13:34.226Z,81.11
2023-02-02T16:16:05.564Z,84.68
2023-02-02T16:18:35.161Z,79.58
2023-02-02T16:21:10.024Z,80.32
2023-02-02T16:23:38.361Z,80.90
2023-02-02T16:26:07.253Z,92.00
2023-02-02T16:28:35.632Z,81.05
2023-02-02T16:31:03.544Z,80.77
2023-02-02T16:33:40.881Z,81.14
2023-02-02T16:36:26.771Z,94.84
2023-02-02T16:38:58.361Z,80.31
2023-02-02T16:41:36.657Z,86.87
2023-02-02T16:44:28.652Z,84.25
2023-02-02T16:46:56.546Z,88.99
2023-02-02T16:49:25.448Z,75.36
2023-02-02T16:52:25.084Z,73.20
2023-02-02T16:54:57.276Z,89.15
2023-02-02T16:57:34.495Z,81.83
2023-02-02T17:00:06.185Z,80.73
2023-02-02T17:02:36.707Z,81.68
2023-02-02T17:05:15.875Z,87.99
2023-02-02T17:07:49.918Z,84.97
2023-02-02T17:10:17.498Z,84.06
2023-02-02T17:12:46.557Z,83.82
2023-02-02T17:15:16.737Z,85.32
2023-02-02T17:17:48.147Z,84.48
2023-02-02T17:20:18.710Z,83.75
2023-02-02T17:22:52.408Z,84.68
2023-02-02T17:25:30.917Z,93.26
2023-02-02T17:28:06.557Z,85.01
2023-02-02T17:30:34.622Z,84.03
2023-02-02T17:33:06.061Z,84.28
2023-02-02T17:35:53.036Z,93.08
2023-02-02T17:38:25.588Z,84.08
2023-02-02T17:40:55.579Z,84.15
2023-02-02T17:43:23.663Z,84.51
2023-02-02T17:45:51.357Z,88.60
2023-02-02T17:48:19.333Z,86.04
2023-02-02T17:50:46.903Z,85.99
2023-02-02T17:53:17.066Z,86.03
2023-02-02T17:55:46.009Z,89.94
2023-02-02T17:58:14.741Z,88.15
2023-02-02T18:00:47.101Z,86.06
2023-02-02T18:03:17.947Z,85.44
2023-02-02T18:05:45.384Z,88.23
2023-02-02T18:08:15.849Z,88.37
2023-02-02T18:10:52.846Z,86.27
2023-02-02T18:13:26.979Z,86.64
2023-02-02T18:16:01.172Z,94.60
2023-02-02T18:18:31.238Z,87.68
2023-02-02T18:21:03.887Z,87.84
2023-02-02T18:23:34.112Z,86.90
2023-02-02T18:26:19.775Z,87.52
2023-02-02T18:28:47.600Z,87.73
2023-02-02T18:31:18.219Z,90.22
2023-02-02T18:33:47.374Z,100.00
2023-02-02T18:36:17.829Z,98.68
2023-02-02T18:38:46.105Z,90.04
2023-02-02T18:41:15.257Z,91.12
2023-02-02T18:43:45.623Z,91.30
2023-02-02T18:46:15.287Z,100.00
2023-02-02T18:48:43.208Z,90.94
2023-02-02T18:51:18.643Z,90.37
2023-02-02T18:53:46.962Z,89.65
2023-02-02T18:56:15.487Z,99.14
2023-02-02T18:58:43.451Z,90.65
2023-02-02T19:01:15.327Z,89.26
2023-02-02T19:03:53.366Z,88.01
2023-02-02T19:06:24.113Z,94.63
2023-02-02T19:08:54.618Z,89.72
2023-02-02T19:11:34.832Z,89.57
2023-02-02T19:14:19.544Z,89.47
2023-02-02T19:16:51.682Z,93.05
2023-02-02T19:19:26.446Z,91.77
2023-02-02T19:21:56.540Z,92.51
2023-02-02T19:24:31.366Z,91.85
2023-02-02T19:27:02.023Z,93.91
2023-02-02T19:29:35.088Z,92.02
2023-02-02T19:32:09.326Z,92.82
2023-02-02T19:34:39.016Z,93.79
2023-02-02T19:37:18.582Z,95.91
2023-02-02T19:39:46.448Z,93.35
2023-02-02T19:42:16.987Z,92.59
2023-02-02T19:44:54.035Z,93.02
2023-02-02T19:47:31.028Z,97.04
2023-02-02T19:50:11.904Z,91.01
2023-02-02T19:52:43.044Z,92.07
2023-02-02T19:55:27.462Z,94.13
2023-02-02T19:58:01.478Z,93.64
2023-02-02T20:00:31.362Z,92.39
2023-02-02T20:03:04.964Z,93.36
2023-02-02T20:05:44.016Z,93.38
2023-02-02T20:08:23.790Z,98.88
2023-02-02T20:10:58.030Z,93.18
2023-02-02T20:13:59.483Z,92.61
2023-02-02T20:16:40.817Z,92.82
2023-02-02T20:19:27.980Z,91.78
2023-02-02T20:22:02.698Z,92.44
2023-02-02T20:24:39.434Z,92.60
2023-02-02T20:27:23.425Z,93.96
2023-02-02T20:29:59.914Z,92.88
2023-02-02T20:32:38.160Z,92.61
2023-02-02T20:35:32.091Z,92.46
2023-02-02T20:37:59.850Z,92.40
2023-02-02T20:40:32.005Z,92.85
2023-02-02T20:43:01.922Z,93.18
2023-02-02T20:45:35.016Z,91.97
2023-02-02T20:48:05.454Z,92.74
2023-02-02T20:50:38.718Z,92.66
2023-02-02T20:53:06.569Z,94.36
2023-02-02T20:55:34.999Z,95.42
2023-02-02T20:58:03.290Z,95.50
2023-02-02T21:00:36.027Z,95.15
2023-02-02T21:03:06.031Z,94.08
2023-02-02T21:05:34.181Z,94.77
2023-02-02T21:08:09.890Z,94.66
2023-02-02T21:10:40.603Z,95.25
2023-02-02T21:13:08.011Z,95.55
2023-02-02T21:15:38.815Z,95.25
2023-02-02T21:18:09.533Z,94.75
2023-02-02T21:20:45.612Z,94.36
2023-02-02T21:23:15.616Z,94.61
2023-02-02T21:25:53.850Z,94.13
2023-02-02T21:28:27.523Z,95.25
2023-02-02T21:30:57.359Z,95.61
2023-02-02T21:33:24.673Z,94.94
2023-02-02T21:35:58.037Z,95.62
2023-02-02T21:38:25.995Z,96.00
2023-02-02T21:40:55.899Z,95.58
2023-02-02T21:43:32.962Z,95.89
2023-02-02T21:46:03.053Z,96.01
2023-02-02T21:48:36.174Z,95.53
2023-02-02T21:51:21.208Z,95.25
2023-02-02T21:53:48.616Z,95.24
2023-02-02T21:56:36.650Z,94.98
2023-02-02T21:59:18.853Z,94.16
2023-02-02T22:01:47.635Z,94.15
2023-02-02T22:04:19.350Z,93.65
2023-02-02T22:06:51.811Z,93.13
2023-02-02T22:09:28.774Z,93.64
2023-02-02T22:12:03.230Z,98.46
2023-02-02T22:14:36.409Z,93.78
2023-02-02T22:17:16.600Z,92.55
2023-02-02T22:19:44.356Z,93.25
2023-02-02T22:22:20.227Z,93.08
2023-02-02T22:25:12.556Z,93.27
2023-02-02T22:27:50.973Z,92.79
2023-02-02T22:30:29.489Z,92.29
2023-02-02T22:32:57.338Z,93.54
2023-02-02T22:35:24.977Z,93.02
2023-02-02T22:37:52.318Z,91.91
2023-02-02T22:40:21.100Z,93.08
2023-02-02T22:42:53.446Z,93.97
2023-02-02T22:45:21.050Z,92.90
2023-02-02T22:47:51.415Z,92.62
2023-02-02T22:50:21.056Z,92.48
2023-02-02T22:52:48.630Z,92.88
2023-02-02T22:55:16.703Z,92.06
2023-02-02T22:57:44.220Z,91.43
2023-02-02T23:00:15.123Z,92.16
2023-02-02T23:02:43.400Z,92.47
2023-02-02T23:05:12.893Z,92.10
2023-02-02T23:07:43.520Z,91.66
2023-02-02T23:10:20.176Z,91.18
2023-02-02T23:12:48.178Z,93.25
2023-02-02T23:15:16.433Z,91.08
2023-02-02T23:17:46.509Z,89.46
2023-02-02T23:20:15.116Z,89.55
2023-02-02T23:22:42.644Z,90.49
2023-02-02T23:25:12.272Z,87.97
2023-02-02T23:27:40.042Z,89.59
2023-02-02T23:30:10.080Z,89.92
2023-02-02T23:32:37.308Z,90.63
2023-02-02T23:35:05.848Z,90.96
2023-02-02T23:37:35.318Z,89.57
2023-02-02T23:40:04.032Z,89.45
2023-02-02T23:42:31.320Z,91.28
2023-02-02T23:45:16.766Z,89.91
2023-02-02T23:47:47.399Z,88.77
2023-02-02T23:50:15.079Z,88.92
2023-02-02T23:52:45.547Z,90.68
2023-02-02T23:55:14.722Z,89.53
2023-02-02T23:57:42.248Z,89.13
